createdAt,value
2018-03-23T00:00:04.242Z,6.95
2018-03-23T00:01:04.216Z,6.97
2018-03-23T00:02:04.163Z,6.95
2018-03-23T00:03:04.172Z,6.95
2018-03-23T00:04:04.089Z,6.98
2018-03-23T00:05:04.086Z,7.04
2018-03-23T00:06:04.066Z,7.05
2018-03-23T00:07:04.037Z,6.97
2018-03-23T00:08:03.983Z,7.09
2018-03-23T00:09:03.965Z,7.12
2018-03-23T00:10:03.925Z,7.11
2018-03-23T00:11:03.908Z,7.04
2018-03-23T00:12:03.881Z,7.00
2018-03-23T00:13:03.839Z,7.00
2018-03-23T00:14:03.878Z,7.03
2018-03-23T00:15:03.788Z,7.05
2018-03-23T00:16:03.895Z,6.98
2018-03-23T00:17:03.739Z,7.01
2018-03-23T00:18:03.714Z,7.04
2018-03-23T00:19:03.679Z,7.09
2018-03-23T00:20:03.645Z,7.11
2018-03-23T00:21:03.625Z,6.97
2018-03-23T00:22:03.598Z,6.98
2018-03-23T00:23:03.571Z,6.94
2018-03-23T00:24:03.601Z,6.97
2018-03-23T00:25:03.548Z,6.97
2018-03-23T00:26:03.506Z,6.90
2018-03-23T00:27:03.513Z,6.93
2018-03-23T00:28:03.464Z,6.97
2018-03-23T00:29:03.454Z,6.95
2018-03-23T00:30:03.413Z,6.97
2018-03-23T00:31:03.391Z,6.97
2018-03-23T00:32:03.364Z,6.97
2018-03-23T00:33:03.334Z,7.03
2018-03-23T00:34:03.302Z,6.97
2018-03-23T00:35:03.223Z,7.00
2018-03-23T00:36:03.232Z,6.94
2018-03-23T00:37:03.160Z,6.97
2018-03-23T00:38:03.164Z,6.98
2018-03-23T00:39:03.108Z,6.94
2018-03-23T00:40:03.112Z,6.97
2018-03-23T00:41:03.054Z,6.94
2018-03-23T00:42:03.056Z,6.94
2018-03-23T00:43:03.008Z,6.94
2018-03-23T00:44:02.985Z,6.97
2018-03-23T00:45:02.961Z,6.95
2018-03-23T00:46:02.979Z,7.00
2018-03-23T00:47:02.878Z,6.98
2018-03-23T00:48:02.878Z,7.03
2018-03-23T00:49:02.816Z,6.94
2018-03-23T00:50:02.815Z,6.95
2018-03-23T00:51:02.782Z,6.97
2018-03-23T00:52:02.737Z,7.03
2018-03-23T00:53:02.722Z,7.04
2018-03-23T00:54:02.702Z,6.98
2018-03-23T00:55:02.685Z,7.08
2018-03-23T00:56:02.668Z,7.03
2018-03-23T00:57:02.603Z,7.11
2018-03-23T00:58:02.595Z,7.00
2018-03-23T00:59:02.553Z,6.94
2018-03-23T01:00:02.504Z,6.98
2018-03-23T01:01:02.465Z,7.00
2018-03-23T01:02:02.441Z,7.01
2018-03-23T01:03:02.433Z,7.03
2018-03-23T01:04:02.387Z,7.00
2018-03-23T01:05:02.381Z,7.03
2018-03-23T01:06:02.332Z,7.03
2018-03-23T01:07:02.333Z,7.08
2018-03-23T01:08:02.294Z,6.94
2018-03-23T01:09:02.234Z,7.00
2018-03-23T01:10:02.224Z,7.01
2018-03-23T01:11:02.218Z,7.04
2018-03-23T01:12:02.170Z,6.98
2018-03-23T01:13:02.175Z,7.03
2018-03-23T01:14:02.165Z,7.04
2018-03-23T01:15:02.168Z,7.03
2018-03-23T01:16:02.099Z,7.08
2018-03-23T01:17:02.057Z,7.13
2018-03-23T01:18:01.988Z,7.04
2018-03-23T01:19:01.961Z,7.11
2018-03-23T01:20:02.009Z,7.13
2018-03-23T01:21:01.911Z,7.08
2018-03-23T01:22:01.895Z,7.16
2018-03-23T01:23:01.926Z,7.15
2018-03-23T01:24:01.873Z,7.12
2018-03-23T01:25:01.792Z,7.09
2018-03-23T01:26:01.805Z,7.18
2018-03-23T01:27:01.745Z,7.21
2018-03-23T01:28:01.710Z,7.15
2018-03-23T01:29:01.700Z,7.16
2018-03-23T01:30:01.674Z,7.19
2018-03-23T01:31:01.640Z,7.09
2018-03-23T01:32:01.619Z,7.13
2018-03-23T01:33:01.566Z,7.01
2018-03-23T01:34:01.587Z,7.00
2018-03-23T01:35:01.551Z,7.03
2018-03-23T01:36:01.475Z,7.09
2018-03-23T01:37:01.475Z,7.08
2018-03-23T01:38:01.452Z,7.12
2018-03-23T01:39:01.400Z,7.12
2018-03-23T01:40:01.376Z,7.09
2018-03-23T01:41:01.453Z,7.12
2018-03-23T01:42:01.395Z,7.04
2018-03-23T01:43:01.284Z,6.98
2018-03-23T01:44:01.288Z,7.04
2018-03-23T01:45:01.236Z,7.04
2018-03-23T01:46:01.334Z,7.09
2018-03-23T01:47:01.207Z,7.12
2018-03-23T01:48:01.154Z,7.12
2018-03-23T01:49:01.138Z,6.98
2018-03-23T01:50:01.102Z,7.03
2018-03-23T01:51:01.104Z,7.00
2018-03-23T01:52:01.082Z,6.98
2018-03-23T01:53:01.020Z,6.91
2018-03-23T01:54:00.998Z,6.94
2018-03-23T01:55:00.981Z,6.88
2018-03-23T01:56:00.956Z,6.83
2018-03-23T01:57:00.936Z,6.83
2018-03-23T01:58:00.893Z,6.90
2018-03-23T01:59:00.926Z,6.90
2018-03-23T02:00:00.816Z,6.90
2018-03-23T02:01:00.798Z,6.90
2018-03-23T02:02:00.743Z,6.85
2018-03-23T02:03:00.758Z,6.85
2018-03-23T02:04:00.715Z,6.90
2018-03-23T02:05:00.695Z,6.85
2018-03-23T02:06:00.675Z,6.90
2018-03-23T02:07:00.630Z,6.88
2018-03-23T02:08:00.568Z,6.85
2018-03-23T02:09:00.592Z,6.91
2018-03-23T02:10:00.512Z,6.86
2018-03-23T02:11:00.505Z,6.82
2018-03-23T02:12:00.508Z,6.78
2018-03-23T02:13:00.434Z,6.85
2018-03-23T02:14:00.406Z,6.79
2018-03-23T02:15:00.420Z,6.76
2018-03-23T02:16:00.362Z,6.76
2018-03-23T02:17:00.333Z,6.61
2018-03-23T02:18:00.323Z,6.70
2018-03-23T02:19:00.273Z,6.68
2018-03-23T02:20:00.269Z,6.65
2018-03-23T02:21:00.236Z,6.76
2018-03-23T02:22:00.200Z,6.72
2018-03-23T02:23:00.176Z,6.75
2018-03-23T02:24:00.162Z,6.78
2018-03-23T02:25:00.093Z,6.65
2018-03-23T02:26:00.124Z,6.58
2018-03-23T02:27:00.052Z,6.55
2018-03-23T02:28:00.036Z,6.58
2018-03-23T02:28:59.994Z,6.62
2018-03-23T02:29:59.960Z,6.60
2018-03-23T02:30:59.918Z,6.68
2018-03-23T02:31:59.903Z,6.65
2018-03-23T02:32:59.901Z,6.70
2018-03-23T02:33:59.873Z,6.65
2018-03-23T02:34:59.842Z,6.78
2018-03-23T02:35:59.802Z,6.76
2018-03-23T02:36:59.775Z,6.79
2018-03-23T02:37:59.753Z,6.73
2018-03-23T02:38:59.724Z,6.82
2018-03-23T02:39:59.683Z,6.76
2018-03-23T02:40:59.660Z,6.73
2018-03-23T02:41:59.629Z,6.76
2018-03-23T02:42:59.608Z,6.73
2018-03-23T02:43:59.569Z,6.73
2018-03-23T02:44:59.530Z,6.68
2018-03-23T02:45:59.514Z,6.57
2018-03-23T02:46:59.477Z,6.55
2018-03-23T02:47:59.484Z,6.55
2018-03-23T02:48:59.437Z,6.51
2018-03-23T02:49:59.384Z,6.51
2018-03-23T02:50:59.369Z,6.55
2018-03-23T02:51:59.316Z,6.61
2018-03-23T02:52:59.335Z,6.57
2018-03-23T02:53:59.324Z,6.55
2018-03-23T02:54:59.239Z,6.58
2018-03-23T02:55:59.233Z,6.60
2018-03-23T02:56:59.221Z,6.64
2018-03-23T02:57:59.160Z,6.51
2018-03-23T02:58:59.144Z,6.49
2018-03-23T02:59:59.102Z,6.55
2018-03-23T03:00:59.127Z,6.54
2018-03-23T03:01:59.048Z,6.47
2018-03-23T03:02:59.004Z,6.55
2018-03-23T03:03:59.068Z,6.51
2018-03-23T03:04:59.013Z,6.58
2018-03-23T03:05:58.922Z,6.64
2018-03-23T03:06:58.905Z,6.62
2018-03-23T03:07:58.886Z,6.60
2018-03-23T03:08:58.840Z,6.61
2018-03-23T03:09:58.846Z,6.64
2018-03-23T03:10:58.790Z,6.55
2018-03-23T03:11:58.771Z,6.52
2018-03-23T03:12:58.771Z,6.51
2018-03-23T03:13:58.719Z,6.58
2018-03-23T03:14:58.687Z,6.60
2018-03-23T03:15:58.665Z,6.51
2018-03-23T03:16:58.630Z,6.54
2018-03-23T03:17:58.582Z,6.47
2018-03-23T03:18:58.602Z,6.52
2018-03-23T03:19:58.560Z,6.51
2018-03-23T03:20:58.516Z,6.49
2018-03-23T03:21:58.466Z,6.51
2018-03-23T03:22:58.447Z,6.57
2018-03-23T03:23:58.427Z,6.57
2018-03-23T03:24:58.397Z,6.61
2018-03-23T03:25:58.374Z,6.57
2018-03-23T03:26:58.327Z,6.60
2018-03-23T03:27:58.340Z,6.60
2018-03-23T03:28:58.254Z,6.60
2018-03-23T03:29:58.261Z,6.57
2018-03-23T03:30:58.253Z,6.57
2018-03-23T03:31:58.176Z,6.58
2018-03-23T03:32:58.165Z,6.51
2018-03-23T03:33:58.171Z,6.51
2018-03-23T03:34:58.102Z,6.51
2018-03-23T03:35:58.095Z,6.49
2018-03-23T03:36:58.027Z,6.47
2018-03-23T03:37:58.014Z,6.49
2018-03-23T03:38:57.975Z,6.54
2018-03-23T03:39:57.968Z,6.49
2018-03-23T03:40:57.938Z,6.49
2018-03-23T03:41:57.884Z,6.47
2018-03-23T03:42:57.914Z,6.51
2018-03-23T03:43:57.834Z,6.47
2018-03-23T03:44:57.822Z,6.52
2018-03-23T03:45:57.756Z,6.40
2018-03-23T03:46:57.796Z,6.44
2018-03-23T03:47:57.742Z,6.47
2018-03-23T03:48:57.744Z,6.39
2018-03-23T03:49:57.648Z,6.40
2018-03-23T03:50:57.648Z,6.40
2018-03-23T03:51:57.649Z,6.36
2018-03-23T03:52:57.576Z,6.42
2018-03-23T03:53:57.539Z,6.36
2018-03-23T03:54:57.535Z,6.34
2018-03-23T03:55:57.543Z,6.40
2018-03-23T03:56:57.500Z,6.52
2018-03-23T03:57:57.456Z,6.37
2018-03-23T03:58:57.437Z,6.46
2018-03-23T03:59:57.367Z,6.44
2018-03-23T04:00:57.359Z,6.57
2018-03-23T04:01:57.328Z,6.52
2018-03-23T04:02:57.349Z,6.49
2018-03-23T04:03:57.296Z,6.55
2018-03-23T04:04:57.240Z,6.49
2018-03-23T04:05:57.208Z,6.61
2018-03-23T04:06:57.180Z,6.61
2018-03-23T04:07:57.149Z,6.64
2018-03-23T04:08:57.107Z,6.60
2018-03-23T04:09:57.091Z,6.67
2018-03-23T04:10:57.051Z,6.70
2018-03-23T04:11:57.074Z,6.64
2018-03-23T04:12:57.030Z,6.73
2018-03-23T04:13:56.967Z,6.73
2018-03-23T04:14:56.968Z,6.76
2018-03-23T04:15:56.919Z,6.72
2018-03-23T04:16:56.961Z,6.76
2018-03-23T04:17:56.884Z,6.78
2018-03-23T04:18:56.845Z,6.67
2018-03-23T04:19:56.821Z,6.72
2018-03-23T04:20:56.830Z,6.73
2018-03-23T04:21:56.776Z,6.79
2018-03-23T04:22:56.716Z,6.76
2018-03-23T04:23:56.699Z,6.73
2018-03-23T04:24:56.649Z,6.73
2018-03-23T04:25:56.643Z,6.79
2018-03-23T04:26:56.620Z,6.82
2018-03-23T04:27:56.601Z,6.75
2018-03-23T04:28:56.548Z,6.79
2018-03-23T04:29:56.540Z,6.72
2018-03-23T04:30:56.532Z,6.78
2018-03-23T04:31:56.473Z,6.78
2018-03-23T04:32:56.491Z,6.86
2018-03-23T04:33:56.420Z,6.88
2018-03-23T04:34:56.394Z,6.82
2018-03-23T04:35:56.376Z,6.80
2018-03-23T04:36:56.327Z,6.91
2018-03-23T04:37:56.343Z,6.95
2018-03-23T04:38:56.279Z,6.98
2018-03-23T04:39:56.251Z,6.90
2018-03-23T04:40:56.229Z,6.88
2018-03-23T04:41:56.232Z,6.90
2018-03-23T04:42:56.159Z,6.94
2018-03-23T04:43:56.147Z,7.01
2018-03-23T04:44:56.088Z,6.98
2018-03-23T04:45:56.095Z,6.93
2018-03-23T04:46:56.062Z,6.95
2018-03-23T04:47:56.047Z,6.97
2018-03-23T04:48:55.974Z,6.98
2018-03-23T04:49:55.997Z,6.86
2018-03-23T04:50:55.948Z,6.88
2018-03-23T04:51:55.898Z,6.86
2018-03-23T04:52:55.905Z,6.88
2018-03-23T04:53:55.866Z,6.86
2018-03-23T04:54:55.839Z,6.88
2018-03-23T04:55:55.800Z,6.88
2018-03-23T04:56:55.800Z,6.82
2018-03-23T04:57:55.739Z,6.90
2018-03-23T04:58:55.743Z,6.85
2018-03-23T04:59:55.662Z,6.82
2018-03-23T05:00:55.703Z,6.90
2018-03-23T05:01:55.658Z,6.88
2018-03-23T05:02:55.714Z,6.91
2018-03-23T05:03:55.601Z,6.88
2018-03-23T05:04:55.543Z,6.86
2018-03-23T05:05:55.512Z,6.86
2018-03-23T05:06:55.489Z,6.83
2018-03-23T05:07:55.517Z,6.86
2018-03-23T05:08:55.452Z,6.79
2018-03-23T05:09:55.439Z,6.83
2018-03-23T05:10:56.193Z,6.85
2018-03-23T05:11:55.339Z,6.86
2018-03-23T05:12:55.317Z,6.88
2018-03-23T05:13:55.394Z,6.82
2018-03-23T05:14:55.256Z,6.86
2018-03-23T05:15:55.227Z,6.86
2018-03-23T05:16:55.232Z,6.85
2018-03-23T05:17:55.213Z,6.86
2018-03-23T05:18:55.130Z,6.86
2018-03-23T05:19:55.138Z,6.85
2018-03-23T05:20:55.104Z,6.86
2018-03-23T05:21:55.052Z,6.83
2018-03-23T05:22:55.101Z,6.88
2018-03-23T05:23:54.985Z,6.90
2018-03-23T05:24:54.966Z,6.91
2018-03-23T05:25:54.966Z,6.90
2018-03-23T05:26:54.935Z,6.90
2018-03-23T05:27:54.885Z,6.95
2018-03-23T05:28:54.880Z,6.85
2018-03-23T05:29:54.819Z,6.80
2018-03-23T05:30:54.812Z,6.95
2018-03-23T05:31:54.803Z,6.97
2018-03-23T05:32:54.746Z,6.94
2018-03-23T05:33:54.739Z,6.94
2018-03-23T05:34:54.723Z,6.98
2018-03-23T05:35:54.660Z,6.98
2018-03-23T05:36:54.633Z,6.90
2018-03-23T05:37:54.628Z,6.90
2018-03-23T05:38:54.620Z,6.98
2018-03-23T05:39:54.553Z,6.90
2018-03-23T05:40:54.568Z,6.97
2018-03-23T05:41:54.506Z,6.97
2018-03-23T05:42:54.481Z,7.03
2018-03-23T05:43:54.476Z,6.94
2018-03-23T05:44:54.412Z,7.00
2018-03-23T05:45:54.415Z,7.01
2018-03-23T05:46:54.347Z,7.01
2018-03-23T05:47:54.309Z,7.05
2018-03-23T05:48:54.313Z,7.03
2018-03-23T05:49:54.292Z,7.01
2018-03-23T05:50:54.228Z,7.08
2018-03-23T05:51:54.231Z,7.04
2018-03-23T05:52:54.169Z,7.12
2018-03-23T05:53:54.139Z,7.09
2018-03-23T05:54:54.121Z,7.09
2018-03-23T05:55:54.097Z,7.11
2018-03-23T05:56:55.395Z,7.18
2018-03-23T05:57:54.492Z,7.18
2018-03-23T05:58:55.532Z,6.98
2018-03-23T05:59:54.035Z,7.16
2018-03-23T06:00:53.962Z,7.19
2018-03-23T06:01:53.949Z,7.03
2018-03-23T06:02:53.875Z,7.16
2018-03-23T06:03:53.869Z,7.18
2018-03-23T06:04:53.891Z,7.19
2018-03-23T06:05:53.794Z,7.21
2018-03-23T06:06:53.786Z,7.19
2018-03-23T06:07:53.734Z,7.16
2018-03-23T06:08:53.703Z,7.13
2018-03-23T06:09:53.675Z,7.12
2018-03-23T06:10:53.652Z,7.11
2018-03-23T06:11:53.634Z,7.09
2018-03-23T06:12:53.616Z,7.12
2018-03-23T06:13:53.564Z,7.15
2018-03-23T06:14:53.541Z,7.22
2018-03-23T06:15:53.549Z,7.13
2018-03-23T06:16:53.476Z,7.15
2018-03-23T06:17:53.459Z,7.16
2018-03-23T06:18:53.420Z,7.13
2018-03-23T06:19:53.397Z,7.00
2018-03-23T06:20:53.375Z,7.13
2018-03-23T06:21:53.338Z,7.08
2018-03-23T06:22:53.314Z,7.11
2018-03-23T06:23:53.397Z,7.12
2018-03-23T06:24:53.260Z,7.08
2018-03-23T06:25:53.232Z,7.13
2018-03-23T06:26:53.236Z,7.05
2018-03-23T06:27:53.170Z,7.12
2018-03-23T06:28:53.144Z,7.08
2018-03-23T06:29:53.129Z,7.13
2018-03-23T06:30:53.081Z,7.15
2018-03-23T06:31:53.065Z,7.19
2018-03-23T06:32:53.042Z,7.19
2018-03-23T06:33:52.993Z,7.15
2018-03-23T06:34:52.992Z,7.15
2018-03-23T06:35:52.945Z,7.00
2018-03-23T06:36:52.908Z,7.12
2018-03-23T06:37:52.900Z,7.04
2018-03-23T06:38:52.871Z,7.01
2018-03-23T06:39:52.826Z,6.95
2018-03-23T06:40:52.816Z,6.95
2018-03-23T06:41:52.821Z,6.97
2018-03-23T06:42:52.738Z,6.88
2018-03-23T06:43:52.740Z,6.88
2018-03-23T06:44:52.721Z,6.80
2018-03-23T06:45:52.667Z,6.88
2018-03-23T06:46:52.651Z,6.90
2018-03-23T06:47:52.646Z,6.80
2018-03-23T06:48:52.579Z,6.85
2018-03-23T06:49:52.575Z,6.88
2018-03-23T06:50:52.510Z,6.82
2018-03-23T06:51:52.486Z,6.86
2018-03-23T06:52:52.481Z,6.86
2018-03-23T06:53:52.490Z,6.85
2018-03-23T06:54:52.442Z,6.86
2018-03-23T06:55:52.419Z,6.86
2018-03-23T06:56:52.396Z,6.79
2018-03-23T06:57:52.390Z,6.75
2018-03-23T06:58:52.327Z,6.85
2018-03-23T06:59:52.308Z,6.83
2018-03-23T07:00:52.307Z,6.82
2018-03-23T07:01:52.253Z,6.93
2018-03-23T07:02:52.179Z,6.97
2018-03-23T07:03:52.158Z,6.90
2018-03-23T07:04:52.138Z,6.97
2018-03-23T07:05:52.099Z,6.97
2018-03-23T07:06:52.133Z,6.83
2018-03-23T07:07:52.058Z,6.98
2018-03-23T07:08:52.007Z,6.90
2018-03-23T07:09:51.982Z,6.97
2018-03-23T07:10:51.979Z,6.97
2018-03-23T07:11:51.982Z,6.97
2018-03-23T07:12:52.846Z,7.01
2018-03-23T07:13:52.001Z,7.04
2018-03-23T07:14:51.872Z,7.03
2018-03-23T07:15:51.874Z,6.98
2018-03-23T07:16:51.811Z,6.90
2018-03-23T07:17:51.785Z,6.83
2018-03-23T07:18:52.000Z,6.86
2018-03-23T07:19:51.809Z,6.85
2018-03-23T07:20:51.761Z,6.82
2018-03-23T07:21:51.778Z,6.88
2018-03-23T07:22:51.653Z,6.88
2018-03-23T07:23:51.625Z,6.83
2018-03-23T07:24:51.634Z,6.83
2018-03-23T07:25:51.542Z,6.85
2018-03-23T07:26:51.500Z,6.88
2018-03-23T07:27:51.481Z,6.86
2018-03-23T07:28:51.513Z,6.86
2018-03-23T07:29:51.594Z,6.98
2018-03-23T07:30:54.788Z,6.97
2018-03-23T07:31:51.414Z,6.93
2018-03-23T07:32:51.359Z,6.95
2018-03-23T07:33:51.348Z,7.00
2018-03-23T07:34:51.344Z,7.01
2018-03-23T07:35:51.280Z,6.98
2018-03-23T07:36:51.255Z,6.94
2018-03-23T07:37:51.255Z,6.93
2018-03-23T07:38:51.261Z,7.00
2018-03-23T07:39:51.161Z,7.00
2018-03-23T07:40:51.158Z,7.04
2018-03-23T07:41:51.093Z,7.01
2018-03-23T07:42:51.090Z,6.97
2018-03-23T07:43:51.083Z,7.03
2018-03-23T07:44:51.017Z,7.18
2018-03-23T07:45:51.004Z,7.09
2018-03-23T07:46:50.945Z,7.03
2018-03-23T07:47:50.930Z,7.00
2018-03-23T07:48:50.928Z,7.01
2018-03-23T07:49:50.913Z,7.11
2018-03-23T07:50:50.831Z,7.09
2018-03-23T07:51:50.820Z,7.03
2018-03-23T07:52:50.829Z,6.98
2018-03-23T07:53:50.746Z,6.98
2018-03-23T07:54:50.762Z,7.11
2018-03-23T07:55:50.708Z,7.18
2018-03-23T07:56:50.686Z,7.18
2018-03-23T07:57:50.679Z,7.16
2018-03-23T07:58:50.651Z,7.13
2018-03-23T07:59:50.624Z,7.21
2018-03-23T08:00:50.606Z,7.27
2018-03-23T08:01:50.539Z,7.23
2018-03-23T08:02:50.525Z,7.15
2018-03-23T08:03:50.514Z,7.26
2018-03-23T08:04:50.453Z,7.26
2018-03-23T08:05:50.440Z,7.23
2018-03-23T08:06:50.512Z,7.26
2018-03-23T08:07:50.431Z,7.27
2018-03-23T08:08:50.340Z,7.15
2018-03-23T08:09:50.317Z,7.26
2018-03-23T08:10:50.295Z,7.13
2018-03-23T08:11:50.255Z,7.13
2018-03-23T08:12:50.286Z,7.22
2018-03-23T08:13:50.205Z,7.27
2018-03-23T08:14:50.181Z,7.30
2018-03-23T08:15:50.159Z,7.26
2018-03-23T08:16:50.123Z,7.39
2018-03-23T08:17:50.123Z,7.41
2018-03-23T08:18:50.097Z,7.39
2018-03-23T08:19:50.040Z,7.31
2018-03-23T08:20:50.039Z,7.34
2018-03-23T08:21:49.966Z,7.36
2018-03-23T08:22:49.937Z,7.40
2018-03-23T08:23:49.933Z,7.40
2018-03-23T08:24:49.928Z,7.45
2018-03-23T08:25:49.878Z,7.55
2018-03-23T08:26:49.835Z,7.55
2018-03-23T08:27:49.834Z,7.54
2018-03-23T08:28:49.772Z,7.58
2018-03-23T08:29:49.769Z,7.68
2018-03-23T08:30:49.755Z,7.70
2018-03-23T08:31:49.723Z,7.73
2018-03-23T08:32:49.721Z,7.89
2018-03-23T08:33:49.642Z,7.92
2018-03-23T08:34:49.617Z,8.06
2018-03-23T08:35:49.612Z,8.07
2018-03-23T08:36:49.547Z,8.10
2018-03-23T08:37:49.518Z,8.09
2018-03-23T08:38:49.516Z,8.09
2018-03-23T08:39:49.475Z,8.09
2018-03-23T08:40:49.474Z,8.16
2018-03-23T08:41:49.459Z,8.22
2018-03-23T08:42:49.399Z,8.25
2018-03-23T08:43:49.398Z,8.39
2018-03-23T08:44:49.370Z,8.40
2018-03-23T08:45:49.313Z,8.35
2018-03-23T08:46:49.273Z,8.44
2018-03-23T08:47:49.260Z,8.42
2018-03-23T08:48:49.228Z,8.40
2018-03-23T08:49:49.188Z,8.39
2018-03-23T08:50:49.201Z,8.28
2018-03-23T08:51:49.156Z,8.21
2018-03-23T08:52:49.118Z,8.16
2018-03-23T08:53:49.084Z,8.17
2018-03-23T08:54:49.051Z,8.21
2018-03-23T08:55:49.070Z,8.21
2018-03-23T08:56:49.031Z,8.17
2018-03-23T08:57:49.014Z,8.25
2018-03-23T08:58:48.969Z,8.35
2018-03-23T08:59:48.938Z,8.53
2018-03-23T09:00:48.876Z,8.44
2018-03-23T09:01:48.883Z,8.44
2018-03-23T09:02:48.840Z,8.52
2018-03-23T09:03:48.798Z,8.54
2018-03-23T09:04:48.805Z,8.65
2018-03-23T09:05:48.746Z,8.65
2018-03-23T09:06:48.734Z,8.60
2018-03-23T09:07:48.692Z,8.69
2018-03-23T09:08:48.687Z,8.54
2018-03-23T09:09:48.645Z,8.67
2018-03-23T09:10:48.645Z,8.62
2018-03-23T09:11:48.594Z,8.72
2018-03-23T09:12:48.553Z,8.67
2018-03-23T09:13:48.541Z,8.68
2018-03-23T09:14:48.527Z,8.64
2018-03-23T09:15:48.543Z,8.68
2018-03-23T09:16:48.474Z,8.72
2018-03-23T09:17:48.430Z,8.80
2018-03-23T09:18:48.414Z,8.87
2018-03-23T09:19:48.452Z,8.92
2018-03-23T09:20:48.322Z,9.05
2018-03-23T09:21:48.324Z,9.03
2018-03-23T09:22:48.336Z,9.08
2018-03-23T09:23:48.274Z,9.11
2018-03-23T09:24:48.245Z,9.01
2018-03-23T09:25:48.212Z,9.04
2018-03-23T09:26:48.164Z,8.97
2018-03-23T09:27:48.145Z,9.05
2018-03-23T09:28:48.139Z,9.08
2018-03-23T09:29:48.141Z,9.27
2018-03-23T09:30:48.061Z,9.21
2018-03-23T09:31:48.068Z,9.24
2018-03-23T09:32:48.027Z,9.29
2018-03-23T09:33:47.983Z,9.37
2018-03-23T09:34:47.993Z,9.44
2018-03-23T09:35:47.923Z,9.53
2018-03-23T09:36:47.919Z,9.71
2018-03-23T09:37:47.887Z,9.71
2018-03-23T09:38:47.854Z,9.82
2018-03-23T09:39:47.821Z,9.90
2018-03-23T09:40:47.777Z,9.89
2018-03-23T09:41:47.764Z,9.96
2018-03-23T09:42:47.766Z,10.07
2018-03-23T09:43:47.713Z,9.92
2018-03-23T09:44:47.683Z,9.84
2018-03-23T09:45:47.686Z,9.85
2018-03-23T09:46:47.693Z,9.56
2018-03-23T09:47:47.613Z,9.38
2018-03-23T09:48:47.635Z,9.35
2018-03-23T09:49:47.575Z,9.42
2018-03-23T09:50:47.512Z,9.39
2018-03-23T09:51:47.545Z,9.32
2018-03-23T09:52:47.467Z,9.37
2018-03-23T09:53:47.459Z,9.41
2018-03-23T09:54:47.409Z,9.35
2018-03-23T09:55:47.408Z,9.27
2018-03-23T09:56:47.372Z,9.17
2018-03-23T09:57:47.361Z,9.04
2018-03-23T09:58:47.371Z,9.01
2018-03-23T09:59:47.290Z,8.98
2018-03-23T10:00:47.249Z,9.01
2018-03-23T10:01:47.242Z,8.90
2018-03-23T10:02:47.262Z,8.92
2018-03-23T10:03:47.254Z,8.95
2018-03-23T10:04:47.155Z,9.03
2018-03-23T10:05:47.125Z,8.97
2018-03-23T10:06:47.152Z,9.09
2018-03-23T10:07:47.120Z,9.21
2018-03-23T10:08:47.109Z,9.35
2018-03-23T10:09:47.026Z,9.44
2018-03-23T10:10:46.989Z,9.57
2018-03-23T10:11:47.007Z,9.64
2018-03-23T10:12:46.949Z,9.67
2018-03-23T10:13:46.930Z,9.80
2018-03-23T10:14:46.899Z,9.96
2018-03-23T10:15:46.840Z,10.00
2018-03-23T10:16:46.861Z,9.92
2018-03-23T10:17:46.823Z,9.98
2018-03-23T10:18:46.797Z,9.95
2018-03-23T10:19:46.748Z,9.89
2018-03-23T10:20:46.763Z,9.77
2018-03-23T10:21:46.689Z,9.67
2018-03-23T10:22:46.687Z,9.71
2018-03-23T10:23:46.719Z,9.60
2018-03-23T10:24:46.621Z,9.42
2018-03-23T10:25:46.588Z,9.38
2018-03-23T10:26:46.635Z,9.44
2018-03-23T10:27:46.573Z,9.34
2018-03-23T10:28:46.512Z,9.29
2018-03-23T10:29:46.510Z,9.44
2018-03-23T10:30:46.457Z,9.59
2018-03-23T10:31:46.442Z,9.72
2018-03-23T10:32:46.428Z,9.67
2018-03-23T10:33:46.364Z,9.74
2018-03-23T10:34:46.361Z,9.77
2018-03-23T10:35:46.351Z,9.77
2018-03-23T10:36:46.298Z,9.71
2018-03-23T10:37:46.325Z,9.74
2018-03-23T10:38:46.273Z,9.82
2018-03-23T10:39:46.218Z,9.95
2018-03-23T10:40:46.186Z,9.89
2018-03-23T10:41:46.183Z,10.00
2018-03-23T10:42:46.131Z,9.77
2018-03-23T10:43:46.105Z,9.71
2018-03-23T10:44:46.086Z,9.55
2018-03-23T10:45:46.140Z,9.55
2018-03-23T10:46:46.088Z,9.55
2018-03-23T10:47:46.023Z,9.55
2018-03-23T10:48:45.996Z,9.60
2018-03-23T10:49:45.953Z,9.55
2018-03-23T10:50:45.947Z,9.57
2018-03-23T10:51:45.935Z,9.37
2018-03-23T10:52:45.904Z,9.42
2018-03-23T10:53:45.852Z,9.29
2018-03-23T10:54:45.855Z,9.23
2018-03-23T10:55:45.814Z,9.44
2018-03-23T10:56:45.823Z,9.44
2018-03-23T10:57:45.773Z,9.70
2018-03-23T10:58:45.722Z,9.70
2018-03-23T10:59:45.694Z,9.71
2018-03-23T11:00:45.661Z,9.80
2018-03-23T11:01:45.630Z,9.92
2018-03-23T11:02:45.621Z,9.96
2018-03-23T11:03:45.593Z,9.98
2018-03-23T11:04:45.551Z,9.99
2018-03-23T11:05:45.522Z,10.20
2018-03-23T11:06:45.521Z,10.25
2018-03-23T11:07:45.477Z,10.44
2018-03-23T11:08:45.444Z,10.57
2018-03-23T11:09:45.442Z,10.59
2018-03-23T11:10:45.411Z,10.72
2018-03-23T11:11:45.401Z,10.35
2018-03-23T11:12:45.359Z,10.32
2018-03-23T11:13:45.347Z,10.38
2018-03-23T11:14:45.310Z,10.42
2018-03-23T11:15:45.316Z,10.52
2018-03-23T11:16:45.268Z,10.54
2018-03-23T11:17:45.226Z,10.59
2018-03-23T11:18:45.226Z,10.72
2018-03-23T11:19:45.248Z,10.61
2018-03-23T11:20:45.204Z,10.75
2018-03-23T11:21:45.124Z,10.75
2018-03-23T11:22:45.080Z,10.79
2018-03-23T11:23:45.065Z,10.85
2018-03-23T11:24:45.048Z,10.85
2018-03-23T11:25:45.022Z,10.84
2018-03-23T11:26:45.028Z,10.85
2018-03-23T11:27:44.971Z,10.83
2018-03-23T11:28:44.976Z,10.84
2018-03-23T11:29:44.949Z,10.85
2018-03-23T11:30:44.898Z,10.79
2018-03-23T11:31:44.899Z,10.72
2018-03-23T11:32:44.868Z,10.67
2018-03-23T11:33:44.840Z,10.49
2018-03-23T11:34:44.808Z,10.54
2018-03-23T11:35:44.789Z,10.61
2018-03-23T11:36:44.738Z,10.66
2018-03-23T11:37:44.711Z,10.47
2018-03-23T11:38:44.720Z,10.46
2018-03-23T11:39:44.657Z,10.44
2018-03-23T11:40:44.628Z,10.26
2018-03-23T11:41:44.637Z,10.17
2018-03-23T11:42:44.596Z,10.15
2018-03-23T11:43:44.543Z,10.07
2018-03-23T11:44:44.559Z,10.05
2018-03-23T11:45:44.505Z,10.08
2018-03-23T11:46:44.468Z,10.02
2018-03-23T11:47:44.451Z,10.23
2018-03-23T11:48:44.454Z,10.23
2018-03-23T11:49:44.423Z,10.21
2018-03-23T11:50:44.441Z,10.26
2018-03-23T11:51:44.367Z,10.26
2018-03-23T11:52:44.349Z,10.29
2018-03-23T11:53:44.322Z,10.14
2018-03-23T11:54:44.298Z,10.17
2018-03-23T11:55:44.265Z,10.17
2018-03-23T11:56:44.211Z,10.18
2018-03-23T11:57:44.217Z,10.13
2018-03-23T11:58:44.162Z,10.13
2018-03-23T11:59:44.138Z,10.15
2018-03-23T12:00:44.231Z,10.20
2018-03-23T12:01:44.160Z,10.26
2018-03-23T12:02:44.144Z,10.29
2018-03-23T12:03:44.074Z,10.23
2018-03-23T12:04:44.026Z,10.39
2018-03-23T12:05:44.007Z,10.46
2018-03-23T12:06:43.969Z,10.41
2018-03-23T12:07:43.927Z,10.55
2018-03-23T12:08:43.902Z,10.70
2018-03-23T12:09:43.966Z,10.41
2018-03-23T12:10:43.900Z,10.44
2018-03-23T12:11:43.863Z,10.42
2018-03-23T12:12:43.797Z,10.32
2018-03-23T12:13:43.785Z,10.18
2018-03-23T12:14:43.752Z,10.15
2018-03-23T12:15:43.747Z,10.25
2018-03-23T12:16:43.743Z,10.18
2018-03-23T12:17:43.677Z,10.31
2018-03-23T12:18:43.690Z,10.32
2018-03-23T12:19:43.656Z,10.47
2018-03-23T12:20:43.587Z,10.29
2018-03-23T12:21:43.630Z,10.29
2018-03-23T12:22:43.583Z,10.20
2018-03-23T12:23:43.516Z,10.18
2018-03-23T12:24:43.484Z,10.08
2018-03-23T12:25:43.490Z,10.07
2018-03-23T12:26:43.442Z,10.08
2018-03-23T12:27:43.410Z,10.05
2018-03-23T12:28:43.412Z,10.07
2018-03-23T12:29:43.407Z,10.18
2018-03-23T12:30:43.337Z,10.17
2018-03-23T12:31:43.333Z,10.03
2018-03-23T12:32:43.328Z,10.02
2018-03-23T12:33:43.370Z,10.05
2018-03-23T12:34:43.272Z,9.96
2018-03-23T12:35:43.257Z,9.95
2018-03-23T12:36:43.182Z,9.66
2018-03-23T12:37:43.360Z,9.70
2018-03-23T12:38:43.182Z,9.57
2018-03-23T12:39:43.104Z,9.59
2018-03-23T12:40:43.113Z,9.57
2018-03-23T12:41:43.210Z,9.57
2018-03-23T12:42:43.259Z,9.57
2018-03-23T12:43:43.080Z,9.55
2018-03-23T12:44:43.015Z,9.55
2018-03-23T12:45:42.972Z,9.71
2018-03-23T12:46:42.937Z,9.70
2018-03-23T12:47:42.944Z,9.72
2018-03-23T12:48:42.889Z,9.72
2018-03-23T12:49:42.856Z,9.67
2018-03-23T12:50:42.868Z,9.75
2018-03-23T12:51:42.803Z,9.70
2018-03-23T12:52:42.779Z,9.74
2018-03-23T12:53:42.769Z,9.77
2018-03-23T12:54:42.777Z,9.75
2018-03-23T12:55:42.699Z,9.75
2018-03-23T12:56:42.673Z,9.71
2018-03-23T12:57:42.811Z,9.74
2018-03-23T12:58:42.613Z,9.55
2018-03-23T12:59:42.613Z,9.60
2018-03-23T13:00:42.573Z,9.59
2018-03-23T13:01:42.547Z,9.59
2018-03-23T13:02:42.568Z,9.37
2018-03-23T13:03:42.710Z,9.44
2018-03-23T13:04:42.621Z,9.39
2018-03-23T13:05:42.460Z,9.50
2018-03-23T13:06:42.501Z,9.41
2018-03-23T13:07:42.376Z,9.50
2018-03-23T13:08:42.347Z,9.50
2018-03-23T13:09:42.345Z,9.41
2018-03-23T13:10:42.303Z,9.52
2018-03-23T13:11:42.274Z,9.57
2018-03-23T13:12:42.246Z,9.52
2018-03-23T13:13:42.244Z,9.48
2018-03-23T13:14:42.200Z,9.42